Terminal Aerodrome Forecast
Issued by NWS Buffalo, NY

Home | Current Version | Previous Version | Text Only | Print | Product List | Glossary On
Versions: 1 2 3 4 5 6 7 8 9 10 11 12 13 14 15 16 17 18 19 20 21 22 23 24 25 26
586
FTUS41 KBUF 110530
TAFROC
TAF
KROC 110530Z 1106/1206 27015KT 5SM -SN BLSN OVC035
      TEMPO 1106/1108 3SM -SN BLSN BKN025
     FM110800 27014KT 6SM -SN BLSN OVC025
     FM111200 30017KT 2SM -SN BLSN OVC015
     FM111600 30019G25KT 3SM -SN BLSN OVC025
     FM112200 29017KT 5SM -SN BLSN OVC025
     FM120000 29015KT P6SM OVC025
     FM120300 28011KT P6SM OVC050=

USA.gov is the U.S. government's official web portal to all federal, state and local government web resources and services.